sensor_id;sensor_type;location;lat;lon;timestamp;temperature;humidity
3980;DHT22;2004;52.452;13.120;2023-04-24T00:00:05;11.30;99.90
3980;DHT22;2004;52.452;13.120;2023-04-24T00:07:56;11.30;99.90
3980;DHT22;2004;52.452;13.120;2023-04-24T00:15:46;11.20;99.90
3980;DHT22;2004;52.452;13.120;2023-04-24T00:23:38;11.20;99.90
3980;DHT22;2004;52.452;13.120;2023-04-24T00:31:29;11.10;99.90
3980;DHT22;2004;52.452;13.120;2023-04-24T00:39:19;11.10;99.90
3980;DHT22;2004;52.452;13.120;2023-04-24T00:47:10;11.10;99.90
3980;DHT22;2004;52.452;13.120;2023-04-24T00:55:02;11.20;99.90
3980;DHT22;2004;52.452;13.120;2023-04-24T01:02:52;11.30;99.90
3980;DHT22;2004;52.452;13.120;2023-04-24T01:10:44;11.30;99.90
3980;DHT22;2004;52.452;13.120;2023-04-24T01:18:35;11.30;99.90
3980;DHT22;2004;52.452;13.120;2023-04-24T01:26:25;11.30;99.90
3980;DHT22;2004;52.452;13.120;2023-04-24T01:34:16;11.30;99.90
3980;DHT22;2004;52.452;13.120;2023-04-24T01:42:07;11.30;99.90
3980;DHT22;2004;52.452;13.120;2023-04-24T01:49:58;11.30;99.90
3980;DHT22;2004;52.452;13.120;2023-04-24T01:57:52;11.20;99.90
3980;DHT22;2004;52.452;13.120;2023-04-24T02:05:45;11.20;99.90
3980;DHT22;2004;52.452;13.120;2023-04-24T02:13:35;11.20;99.90
3980;DHT22;2004;52.452;13.120;2023-04-24T02:21:26;11.20;99.90
3980;DHT22;2004;52.452;13.120;2023-04-24T02:29:17;11.10;99.90
3980;DHT22;2004;52.452;13.120;2023-04-24T02:37:08;11.10;99.90
3980;DHT22;2004;52.452;13.120;2023-04-24T02:44:59;11.10;99.90
3980;DHT22;2004;52.452;13.120;2023-04-24T02:52:49;11.10;99.90
3980;DHT22;2004;52.452;13.120;2023-04-24T03:00:41;11.10;99.90
3980;DHT22;2004;52.452;13.120;2023-04-24T03:08:32;11.10;99.90
3980;DHT22;2004;52.452;13.120;2023-04-24T03:16:24;11.10;99.90
3980;DHT22;2004;52.452;13.120;2023-04-24T03:24:14;11.20;99.90
3980;DHT22;2004;52.452;13.120;2023-04-24T03:32:05;11.30;99.90
3980;DHT22;2004;52.452;13.120;2023-04-24T03:39:55;11.30;99.90
3980;DHT22;2004;52.452;13.120;2023-04-24T03:47:46;11.30;99.90
3980;DHT22;2004;52.452;13.120;2023-04-24T03:55:36;11.40;99.90
3980;DHT22;2004;52.452;13.120;2023-04-24T04:03:27;11.40;99.90
3980;DHT22;2004;52.452;13.120;2023-04-24T04:11:18;11.40;99.90
3980;DHT22;2004;52.452;13.120;2023-04-24T04:19:09;11.40;99.90
3980;DHT22;2004;52.452;13.120;2023-04-24T04:27:00;11.40;99.90
3980;DHT22;2004;52.452;13.120;2023-04-24T04:34:50;11.30;99.90
3980;DHT22;2004;52.452;13.120;2023-04-24T04:42:43;11.30;99.90
3980;DHT22;2004;52.452;13.120;2023-04-24T04:50:36;11.30;99.90
3980;DHT22;2004;52.452;13.120;2023-04-24T04:58:26;11.30;99.90
3980;DHT22;2004;52.452;13.120;2023-04-24T05:06:17;11.40;99.90
3980;DHT22;2004;52.452;13.120;2023-04-24T05:14:07;11.50;99.90
3980;DHT22;2004;52.452;13.120;2023-04-24T05:21:58;11.60;99.90
3980;DHT22;2004;52.452;13.120;2023-04-24T05:29:48;11.70;99.90
3980;DHT22;2004;52.452;13.120;2023-04-24T05:37:40;11.70;99.90
3980;DHT22;2004;52.452;13.120;2023-04-24T05:45:31;11.80;99.90
3980;DHT22;2004;52.452;13.120;2023-04-24T05:53:22;11.90;99.90
3980;DHT22;2004;52.452;13.120;2023-04-24T06:01:13;12.00;99.90
3980;DHT22;2004;52.452;13.120;2023-04-24T06:09:05;12.10;99.90
3980;DHT22;2004;52.452;13.120;2023-04-24T06:16:55;12.20;99.90
3980;DHT22;2004;52.452;13.120;2023-04-24T06:24:46;12.50;99.90
3980;DHT22;2004;52.452;13.120;2023-04-24T06:32:39;12.70;99.90
3980;DHT22;2004;52.452;13.120;2023-04-24T06:40:30;12.80;99.90
3980;DHT22;2004;52.452;13.120;2023-04-24T06:48:20;12.90;99.90
3980;DHT22;2004;52.452;13.120;2023-04-24T06:56:12;13.00;99.90
3980;DHT22;2004;52.452;13.120;2023-04-24T07:04:02;13.00;99.90
3980;DHT22;2004;52.452;13.120;2023-04-24T07:11:53;13.10;99.90
3980;DHT22;2004;52.452;13.120;2023-04-24T07:19:44;13.20;99.90
3980;DHT22;2004;52.452;13.120;2023-04-24T07:27:35;13.20;99.90
3980;DHT22;2004;52.452;13.120;2023-04-24T07:35:28;13.40;99.90
3980;DHT22;2004;52.452;13.120;2023-04-24T07:43:20;13.60;99.90
3980;DHT22;2004;52.452;13.120;2023-04-24T07:51:11;13.70;99.90
3980;DHT22;2004;52.452;13.120;2023-04-24T07:59:03;14.00;99.90
3980;DHT22;2004;52.452;13.120;2023-04-24T08:06:54;14.30;99.90
3980;DHT22;2004;52.452;13.120;2023-04-24T08:14:45;14.40;99.90
3980;DHT22;2004;52.452;13.120;2023-04-24T08:22:36;14.70;99.90
3980;DHT22;2004;52.452;13.120;2023-04-24T08:30:27;14.90;99.90
3980;DHT22;2004;52.452;13.120;2023-04-24T08:38:18;14.90;99.90
3980;DHT22;2004;52.452;13.120;2023-04-24T08:46:09;15.00;99.90
3980;DHT22;2004;52.452;13.120;2023-04-24T08:54:01;15.10;99.90
3980;DHT22;2004;52.452;13.120;2023-04-24T09:01:53;15.30;99.90
3980;DHT22;2004;52.452;13.120;2023-04-24T09:09:45;15.30;99.90
3980;DHT22;2004;52.452;13.120;2023-04-24T09:17:36;15.40;99.90
3980;DHT22;2004;52.452;13.120;2023-04-24T09:25:33;15.40;99.90
3980;DHT22;2004;52.452;13.120;2023-04-24T09:33:26;15.50;99.90
3980;DHT22;2004;52.452;13.120;2023-04-24T09:41:16;15.60;99.90
3980;DHT22;2004;52.452;13.120;2023-04-24T09:49:13;15.60;99.90
3980;DHT22;2004;52.452;13.120;2023-04-24T09:57:04;15.70;99.90
3980;DHT22;2004;52.452;13.120;2023-04-24T10:04:56;15.70;99.90
3980;DHT22;2004;52.452;13.120;2023-04-24T10:12:51;15.80;99.90
3980;DHT22;2004;52.452;13.120;2023-04-24T10:20:42;15.70;99.30
3980;DHT22;2004;52.452;13.120;2023-04-24T10:28:33;15.60;98.90
3980;DHT22;2004;52.452;13.120;2023-04-24T10:36:27;15.50;98.80
3980;DHT22;2004;52.452;13.120;2023-04-24T10:44:22;15.60;98.80
3980;DHT22;2004;52.452;13.120;2023-04-24T10:52:14;15.80;97.50
3980;DHT22;2004;52.452;13.120;2023-04-24T11:00:21;15.70;99.90
3980;DHT22;2004;52.452;13.120;2023-04-24T11:08:13;15.40;99.90
3980;DHT22;2004;52.452;13.120;2023-04-24T11:16:31;15.40;99.90
3980;DHT22;2004;52.452;13.120;2023-04-24T11:24:26;15.80;99.90
3980;DHT22;2004;52.452;13.120;2023-04-24T11:40:24;16.60;99.90
3980;DHT22;2004;52.452;13.120;2023-04-24T11:48:19;17.00;98.40
3980;DHT22;2004;52.452;13.120;2023-04-24T11:56:10;17.20;95.60
3980;DHT22;2004;52.452;13.120;2023-04-24T12:04:01;17.10;93.40
3980;DHT22;2004;52.452;13.120;2023-04-24T12:11:56;17.00;88.90
3980;DHT22;2004;52.452;13.120;2023-04-24T12:19:51;16.90;84.40
3980;DHT22;2004;52.452;13.120;2023-04-24T12:27:42;17.10;81.50
3980;DHT22;2004;52.452;13.120;2023-04-24T12:35:35;17.20;75.70
3980;DHT22;2004;52.452;13.120;2023-04-24T12:43:26;17.50;75.70
3980;DHT22;2004;52.452;13.120;2023-04-24T12:51:16;17.50;73.20
3980;DHT22;2004;52.452;13.120;2023-04-24T12:59:08;17.60;75.30
3980;DHT22;2004;52.452;13.120;2023-04-24T13:06:58;17.40;69.60
3980;DHT22;2004;52.452;13.120;2023-04-24T13:14:49;17.20;69.10
3980;DHT22;2004;52.452;13.120;2023-04-24T13:22:39;17.30;68.40
3980;DHT22;2004;52.452;13.120;2023-04-24T13:30:31;17.10;77.00
3980;DHT22;2004;52.452;13.120;2023-04-24T13:38:23;16.90;77.70
3980;DHT22;2004;52.452;13.120;2023-04-24T13:46:13;16.70;76.70
3980;DHT22;2004;52.452;13.120;2023-04-24T13:54:04;16.80;73.90
3980;DHT22;2004;52.452;13.120;2023-04-24T14:01:55;16.80;64.10
3980;DHT22;2004;52.452;13.120;2023-04-24T14:09:45;17.00;63.60
3980;DHT22;2004;52.452;13.120;2023-04-24T14:17:36;17.20;63.50
3980;DHT22;2004;52.452;13.120;2023-04-24T14:25:26;17.20;60.60
3980;DHT22;2004;52.452;13.120;2023-04-24T14:33:17;17.00;61.10
3980;DHT22;2004;52.452;13.120;2023-04-24T14:41:08;16.90;61.40
3980;DHT22;2004;52.452;13.120;2023-04-24T14:48:59;16.90;61.40
3980;DHT22;2004;52.452;13.120;2023-04-24T14:56:50;16.90;62.80
3980;DHT22;2004;52.452;13.120;2023-04-24T15:04:41;16.70;61.50
3980;DHT22;2004;52.452;13.120;2023-04-24T15:12:31;16.40;59.60
3980;DHT22;2004;52.452;13.120;2023-04-24T15:20:22;16.10;61.10
3980;DHT22;2004;52.452;13.120;2023-04-24T15:28:12;16.00;64.40
3980;DHT22;2004;52.452;13.120;2023-04-24T15:36:04;16.00;65.20
3980;DHT22;2004;52.452;13.120;2023-04-24T15:43:55;16.10;63.20
3980;DHT22;2004;52.452;13.120;2023-04-24T15:51:45;16.10;62.00
3980;DHT22;2004;52.452;13.120;2023-04-24T15:59:36;16.10;61.40
3980;DHT22;2004;52.452;13.120;2023-04-24T16:07:26;16.10;62.30
3980;DHT22;2004;52.452;13.120;2023-04-24T16:15:17;15.90;63.20
3980;DHT22;2004;52.452;13.120;2023-04-24T16:23:07;15.70;63.90
3980;DHT22;2004;52.452;13.120;2023-04-24T16:30:58;15.30;71.30
3980;DHT22;2004;52.452;13.120;2023-04-24T16:38:48;14.60;74.40
3980;DHT22;2004;52.452;13.120;2023-04-24T16:46:39;14.20;76.80
3980;DHT22;2004;52.452;13.120;2023-04-24T16:54:30;13.90;84.80
3980;DHT22;2004;52.452;13.120;2023-04-24T17:02:23;13.50;86.60
3980;DHT22;2004;52.452;13.120;2023-04-24T17:10:15;13.30;89.00
3980;DHT22;2004;52.452;13.120;2023-04-24T17:18:06;13.10;89.10
3980;DHT22;2004;52.452;13.120;2023-04-24T17:25:57;12.90;86.60
3980;DHT22;2004;52.452;13.120;2023-04-24T17:33:47;12.80;86.90
3980;DHT22;2004;52.452;13.120;2023-04-24T17:41:38;12.70;87.50
3980;DHT22;2004;52.452;13.120;2023-04-24T17:49:29;12.60;86.90
3980;DHT22;2004;52.452;13.120;2023-04-24T17:57:19;12.40;87.40
3980;DHT22;2004;52.452;13.120;2023-04-24T18:05:11;12.40;88.70
3980;DHT22;2004;52.452;13.120;2023-04-24T18:13:03;12.20;89.20
3980;DHT22;2004;52.452;13.120;2023-04-24T18:20:54;12.20;90.00
3980;DHT22;2004;52.452;13.120;2023-04-24T18:28:44;12.00;89.60
3980;DHT22;2004;52.452;13.120;2023-04-24T18:36:35;11.80;88.30
3980;DHT22;2004;52.452;13.120;2023-04-24T18:44:26;11.60;87.40
3980;DHT22;2004;52.452;13.120;2023-04-24T18:52:16;11.50;88.10
3980;DHT22;2004;52.452;13.120;2023-04-24T19:00:07;11.30;88.60
3980;DHT22;2004;52.452;13.120;2023-04-24T19:07:58;11.10;89.50
3980;DHT22;2004;52.452;13.120;2023-04-24T19:15:49;11.00;90.30
3980;DHT22;2004;52.452;13.120;2023-04-24T19:23:41;10.90;90.70
3980;DHT22;2004;52.452;13.120;2023-04-24T19:31:34;10.80;91.20
3980;DHT22;2004;52.452;13.120;2023-04-24T19:39:25;10.70;90.90
3980;DHT22;2004;52.452;13.120;2023-04-24T19:47:16;10.50;91.10
3980;DHT22;2004;52.452;13.120;2023-04-24T19:55:07;10.40;91.50
3980;DHT22;2004;52.452;13.120;2023-04-24T20:02:58;10.30;92.00
3980;DHT22;2004;52.452;13.120;2023-04-24T20:10:48;10.30;92.60
3980;DHT22;2004;52.452;13.120;2023-04-24T20:18:40;10.20;93.00
3980;DHT22;2004;52.452;13.120;2023-04-24T20:26:30;10.10;93.10
3980;DHT22;2004;52.452;13.120;2023-04-24T20:34:21;10.10;93.40
3980;DHT22;2004;52.452;13.120;2023-04-24T20:42:12;10.10;94.00
3980;DHT22;2004;52.452;13.120;2023-04-24T20:50:04;10.10;94.50
3980;DHT22;2004;52.452;13.120;2023-04-24T20:57:55;10.00;95.10
3980;DHT22;2004;52.452;13.120;2023-04-24T21:05:46;10.00;95.90
3980;DHT22;2004;52.452;13.120;2023-04-24T21:13:37;9.90;97.60
3980;DHT22;2004;52.452;13.120;2023-04-24T21:21:27;9.90;99.90
3980;DHT22;2004;52.452;13.120;2023-04-24T21:29:18;9.80;99.90
3980;DHT22;2004;52.452;13.120;2023-04-24T21:37:08;9.80;99.90
3980;DHT22;2004;52.452;13.120;2023-04-24T21:45:00;9.80;99.90
3980;DHT22;2004;52.452;13.120;2023-04-24T21:52:50;9.70;99.90
3980;DHT22;2004;52.452;13.120;2023-04-24T22:00:41;9.70;99.90
3980;DHT22;2004;52.452;13.120;2023-04-24T22:08:31;9.70;99.90
3980;DHT22;2004;52.452;13.120;2023-04-24T22:16:22;9.60;99.90
3980;DHT22;2004;52.452;13.120;2023-04-24T22:24:13;9.50;99.90
3980;DHT22;2004;52.452;13.120;2023-04-24T22:32:04;9.40;99.90
3980;DHT22;2004;52.452;13.120;2023-04-24T22:39:54;9.30;99.90
3980;DHT22;2004;52.452;13.120;2023-04-24T22:47:45;9.30;99.90
3980;DHT22;2004;52.452;13.120;2023-04-24T22:55:36;9.30;99.90
3980;DHT22;2004;52.452;13.120;2023-04-24T23:03:26;9.30;99.90
3980;DHT22;2004;52.452;13.120;2023-04-24T23:11:17;9.40;99.90
3980;DHT22;2004;52.452;13.120;2023-04-24T23:19:09;9.40;99.90
3980;DHT22;2004;52.452;13.120;2023-04-24T23:26:59;9.30;99.90
3980;DHT22;2004;52.452;13.120;2023-04-24T23:34:51;9.30;99.90
3980;DHT22;2004;52.452;13.120;2023-04-24T23:42:42;9.20;99.90
3980;DHT22;2004;52.452;13.120;2023-04-24T23:50:33;9.20;99.90
3980;DHT22;2004;52.452;13.120;2023-04-24T23:58:25;9.10;99.90
